Startpagina
METAR-TAF:

METAR-TAF

Vliegvelden :

Funafuti, Tuvalu

breedte: 08-31S, lengte: 179-13E, hoogte: 1 m

Actueel weer

Dit bericht is 58 minuten geleden gemaakt, om 10:00 UTC
Wind 3 kt uit variabele richting
Temperatuur 27°C
Vochtigheid 84%
Druk 1012 hPa
Zicht 10 km of meer
Weinig wolken op 1900 ft, Stapelwolken.
Gebroken wolken op 11000 ft
lichte regenbuien

METAR: NGFU 261000Z VRB03KT 9999 FEW019TCU BKN110 27/24 Q1012 -SHRA

Tijdstip: 22:58 (10:58 UTC)

Verwachting

Dit bericht is 5 uur en het 29 minuten geleden gemaakt, om 05:29 UTC
Verwachting geldig van 26 om 06 UTC tot 27 om 06 UTC
Wind 6 kt uit het oosten
Zicht 10 km of meer
Verspreide wolken op 1800 ft
Verspreide wolken op 10000 ft

TAF: NGFU 260529Z 2606/2706 08006KT 9999 SCT018 SCT100

Waarnemingen en weersverwachtingen van meer dan 4000 vliegvelden (METAR en TAF).

De beschikbare stations zijn de gele en rode punten op de kaart.

Ga met uw muis naar het station om de naam te zien.

Klik dan om waarnemingen en weersverwachtingen te zien.

kaart wijzigen: klik op de groene knoppen met een zwart kruis om in te zoomen, op de groene knop met een streepje om uit te zoomen of op de groene pijlen voor aangrenzende kaarten.


METAR-TAF: